Time;durP1;ratioP1;P1;durP2;ratioP2;P2;SDS_P1;SDS_P2;PMS_P1;PMS_P2;Temp;Humidity;BMP_temperature;BMP_pressure;BME280_temperature;BME280_humidity;BME280_pressure;Samples;Min_cycle;Max_cycle;Signal;HPM_P1;HPM_P2
2022/04/02 00:01:08;;;;;;;54.75;9.98;;;;;;;15.86;54.82;99277.53;5110084;28;20027;-79
2022/04/02 00:03:33;;;;;;;41.55;9.35;;;;;;;15.88;54.99;99265.41;5109812;28;20035;-79
2022/04/02 00:05:59;;;;;;;56.03;10.32;;;;;;;15.87;55.16;99257.50;5109330;28;20031;-80
2022/04/02 00:08:25;;;;;;;;;;;;;;;15.90;54.93;99259.78;5109820;28;20091;-80
2022/04/02 00:10:51;;;;;;;53.42;8.85;;;;;;;15.81;55.35;99275.50;5109757;28;19919;-80
2022/04/02 00:13:17;;;;;;;43.72;8.80;;;;;;;15.77;55.20;99290.56;5109211;28;20474;-81
2022/04/02 00:15:42;;;;;;;49.72;9.45;;;;;;;15.73;55.34;99265.81;5108442;28;20024;-80
2022/04/02 00:18:08;;;;;;;52.20;9.60;;;;;;;15.75;55.16;99257.44;5109434;28;20027;-80
2022/04/02 00:20:33;;;;;;;44.00;8.95;;;;;;;15.88;55.13;99259.16;5109922;28;20055;-80
2022/04/02 00:25:43;;;;;;;40.45;8.63;;;;;;;15.68;55.58;99235.00;5108193;28;20086;-80
2022/04/02 00:28:08;;;;;;;46.15;8.77;;;;;;;15.76;55.54;99240.97;5108740;28;20471;-81
2022/04/02 00:30:34;;;;;;;48.70;9.93;;;;;;;15.75;55.30;99233.88;5106428;28;20098;-80
2022/04/02 00:33:00;;;;;;;46.05;9.02;;;;;;;15.58;55.80;99222.84;5109006;28;20475;-80
2022/04/02 00:35:26;;;;;;;51.25;9.55;;;;;;;15.46;56.28;99226.56;5108308;28;20439;-79
2022/04/02 00:37:52;;;;;;;49.92;8.60;;;;;;;15.64;55.80;99223.81;5109534;28;20034;-79
2022/04/02 00:40:17;;;;;;;54.25;9.27;;;;;;;15.48;56.33;99214.44;5110169;28;20031;-80
2022/04/02 00:42:44;;;;;;;42.65;9.00;;;;;;;15.54;56.14;99209.97;5113754;28;20080;-80
2022/04/02 00:45:10;;;;;;;58.55;8.77;;;;;;;15.51;55.86;99211.25;5112710;28;20038;-79
2022/04/02 00:47:36;;;;;;;52.83;8.95;;;;;;;15.45;56.16;99216.75;5095366;28;20028;-79
2022/04/02 00:50:01;;;;;;;50.70;8.98;;;;;;;15.30;56.28;99220.69;5113124;28;20040;-80
2022/04/02 00:52:27;;;;;;;45.30;8.65;;;;;;;15.39;56.37;99229.34;5112446;28;20023;-80
2022/04/02 00:54:52;;;;;;;51.05;8.73;;;;;;;15.44;56.01;99225.94;5112529;28;20028;-79
2022/04/02 00:57:18;;;;;;;52.85;9.02;;;;;;;15.24;56.74;99223.47;5112724;28;20032;-79
2022/04/02 00:59:44;;;;;;;49.55;9.98;;;;;;;14.96;57.52;99214.84;5120270;28;20036;-80
2022/04/02 01:02:09;;;;;;;54.83;9.18;;;;;;;14.81;57.82;99190.00;5128136;28;20036;-79
2022/04/02 01:04:35;;;;;;;50.70;8.38;;;;;;;14.82;58.26;99207.91;5113946;28;20039;-80
2022/04/02 01:07:00;;;;;;;44.28;8.00;;;;;;;14.88;57.87;99206.19;5113197;28;20532;-79
2022/04/02 01:09:26;;;;;;;45.30;7.93;;;;;;;14.73;58.46;99203.84;5111490;28;20034;-79
2022/04/02 01:11:52;;;;;;;58.35;9.20;;;;;;;14.82;58.00;99201.66;5114123;28;20099;-80
2022/04/02 01:14:18;;;;;;;59.33;8.57;;;;;;;14.85;58.10;99202.03;5112792;28;20484;-79
2022/04/02 01:16:44;;;;;;;45.00;8.77;;;;;;;14.88;58.15;99206.19;5113342;28;20031;-79
2022/04/02 01:19:09;;;;;;;48.78;9.18;;;;;;;14.84;58.33;99222.03;5111109;28;20480;-78
2022/04/02 01:21:36;;;;;;;49.92;8.90;;;;;;;14.81;58.59;99222.47;5112984;28;20564;-80
2022/04/02 01:24:02;;;;;;;44.45;8.77;;;;;;;14.81;58.50;99213.53;5112284;28;20102;-80
2022/04/02 01:26:28;;;;;;;47.13;9.52;;;;;;;14.70;58.42;99198.84;5111939;28;20510;-79
2022/04/02 01:28:57;;;;;;;42.63;9.48;;;;;;;14.80;58.52;99223.53;5126109;28;20043;-79
2022/04/02 01:31:23;;;;;;;48.63;8.77;;;;;;;14.78;58.77;99221.03;5130168;28;20387;-78
2022/04/02 01:33:49;;;;;;;51.40;8.75;;;;;;;14.77;58.69;99221.25;5111217;28;20041;-78
2022/04/02 01:36:15;;;;;;;;;;;;;;;14.81;58.75;99233.31;5095527;28;20023;-79
2022/04/02 01:38:40;;;;;;;52.05;8.93;;;;;;;14.80;58.86;99207.31;5111928;28;20011;-79
2022/04/02 01:41:05;;;;;;;48.42;9.20;;;;;;;14.80;58.46;99212.72;5112286;28;20093;-79
2022/04/02 01:43:31;;;;;;;46.30;9.45;;;;;;;14.90;58.73;99231.97;5112237;28;20067;-79
2022/04/02 01:45:57;;;;;;;42.67;8.65;;;;;;;15.00;58.72;99234.16;5111183;28;20126;-80
2022/04/02 01:48:23;;;;;;;43.63;8.15;;;;;;;15.03;58.41;99231.00;5091854;28;20038;-79
2022/04/02 01:50:49;;;;;;;46.65;9.23;;;;;;;15.06;58.02;99235.16;5112528;27;20047;-79
2022/04/02 01:53:14;;;;;;;;;;;;;;;15.17;58.16;99237.06;5110117;28;20119;-79
2022/04/02 01:55:40;;;;;;;53.17;9.45;;;;;;;15.05;58.58;99250.53;5112707;28;20006;-78
2022/04/02 01:58:05;;;;;;;43.25;8.95;;;;;;;15.15;58.45;99247.34;5110581;28;20479;-80
2022/04/02 02:00:31;;;;;;;50.15;8.68;;;;;;;15.02;58.68;99232.03;5110998;28;20440;-80
2022/04/02 02:02:56;;;;;;;41.38;7.88;;;;;;;15.14;58.39;99242.94;5110171;28;20073;-80
2022/04/02 02:05:22;;;;;;;41.03;8.23;;;;;;;14.98;59.02;99230.81;5112056;28;20089;-78
2022/04/02 02:07:51;;;;;;;46.78;8.05;;;;;;;14.95;59.32;99237.53;5111749;28;20467;-80
2022/04/02 02:10:18;;;;;;;43.92;7.93;;;;;;;14.92;59.46;99235.28;5111890;28;20081;-81
2022/04/02 02:12:43;;;;;;;47.03;8.52;;;;;;;14.96;59.33;99241.06;5110575;28;20027;-79
2022/04/02 02:15:09;;;;;;;53.15;8.90;;;;;;;14.97;59.08;99235.41;5110044;28;20479;-79
2022/04/02 02:17:34;;;;;;;50.00;9.52;;;;;;;15.11;59.20;99243.41;5111392;28;20035;-79
2022/04/02 02:20:00;;;;;;;47.85;8.50;;;;;;;14.87;59.26;99220.78;5111696;28;20031;-79
2022/04/02 02:22:25;;;;;;;41.75;7.93;;;;;;;14.90;59.64;99236.56;5111555;28;20484;-79
2022/04/02 02:24:51;;;;;;;48.30;9.30;;;;;;;14.83;59.80;99239.31;5111596;28;20085;-79
2022/04/02 02:27:17;;;;;;;51.40;9.00;;;;;;;14.86;60.03;99248.88;5110153;28;20130;-82
2022/04/02 02:29:42;;;;;;;49.08;8.73;;;;;;;14.80;60.49;99255.16;5109976;28;20035;-79
2022/04/02 02:32:08;;;;;;;53.40;9.15;;;;;;;14.66;60.89;99241.78;5111060;28;20120;-80
2022/04/02 02:37:17;;;;;;;51.63;8.80;;;;;;;14.58;61.24;99244.75;5089654;28;20082;-81
2022/04/02 02:39:43;;;;;;;46.83;8.52;;;;;;;14.63;60.91;99253.00;5108372;28;20063;-80
2022/04/02 02:42:08;;;;;;;50.58;8.98;;;;;;;14.59;61.20;99245.59;5111153;28;20046;-80
2022/04/02 02:44:34;;;;;;;43.30;9.57;;;;;;;14.62;61.04;99240.56;5110873;28;20493;-79
2022/04/02 02:46:59;;;;;;;43.25;8.85;;;;;;;14.62;61.13;99262.19;5111360;28;20031;-78
2022/04/02 02:49:25;;;;;;;53.28;9.55;;;;;;;14.59;61.23;99257.22;5110613;28;20092;-80
2022/04/02 02:51:51;;;;;;;51.38;8.88;;;;;;;14.57;61.65;99260.16;5111045;28;20035;-79
2022/04/02 02:54:16;;;;;;;43.17;8.55;;;;;;;14.45;62.07;99248.38;5110562;28;20077;-79
2022/04/02 02:56:42;;;;;;;55.60;8.15;;;;;;;14.47;62.02;99254.38;5111047;28;20098;-79
2022/04/02 02:59:08;;;;;;;54.08;8.55;;;;;;;14.50;62.17;99253.94;5110299;28;20057;-81
2022/04/02 03:01:33;;;;;;;50.22;9.40;;;;;;;14.45;62.23;99245.66;5111233;28;20071;-79
2022/04/02 03:03:59;;;;;;;53.75;8.80;;;;;;;14.33;62.85;99242.03;5110329;28;20092;-79
2022/04/02 03:06:24;;;;;;;48.13;8.95;;;;;;;14.38;62.49;99254.88;5111058;28;20037;-79
2022/04/02 03:08:49;;;;;;;47.25;8.60;;;;;;;14.29;62.85;99241.63;5110271;28;20534;-80
2022/04/02 03:11:15;;;;;;;42.97;8.10;;;;;;;14.29;62.91;99243.50;5110651;28;20524;-78
2022/04/02 03:13:41;;;;;;;56.10;8.57;;;;;;;14.32;62.96;99251.16;5110225;28;20411;-80
2022/04/02 03:16:06;;;;;;;58.22;9.10;;;;;;;14.34;62.96;99243.66;5110699;28;20066;-80
2022/04/02 03:18:32;;;;;;;49.78;9.95;;;;;;;14.31;62.85;99234.13;5110388;28;20114;-80
2022/04/02 03:20:58;;;;;;;50.60;8.70;;;;;;;14.35;62.52;99234.50;5110866;28;20039;-79
2022/04/02 03:23:23;;;;;;;42.80;8.90;;;;;;;14.46;62.70;99246.50;5110481;28;20690;-80
2022/04/02 03:25:49;;;;;;;51.65;8.60;;;;;;;14.37;62.83;99243.22;5110783;28;20114;-79
2022/04/02 03:28:15;;;;;;;50.60;8.93;;;;;;;14.32;62.87;99235.78;5109760;28;20040;-81
2022/04/02 03:30:40;;;;;;;40.83;8.50;;;;;;;14.31;63.26;99231.44;5109246;28;20039;-80
2022/04/02 03:33:06;;;;;;;45.67;7.70;;;;;;;14.23;63.54;99225.44;5109274;28;20456;-78
2022/04/02 03:35:31;;;;;;;48.63;8.05;;;;;;;14.06;63.84;99214.34;5110814;28;20035;-79
2022/04/02 03:37:57;;;;;;;47.80;8.18;;;;;;;14.01;63.98;99233.94;5110194;28;20050;-81
2022/04/02 03:40:24;;;;;;;55.67;8.52;;;;;;;14.06;64.20;99235.97;5110891;28;20113;-80
2022/04/02 03:42:50;;;;;;;56.95;8.02;;;;;;;13.97;64.44;99216.50;5108904;28;20047;-79
2022/04/02 03:45:18;;;;;;;57.42;9.43;;;;;;;13.92;64.59;99221.72;5110227;28;20039;-79
2022/04/02 03:47:43;;;;;;;45.10;7.15;;;;;;;13.92;64.62;99206.34;5110232;28;20032;-78
2022/04/02 03:50:09;;;;;;;51.15;7.63;;;;;;;13.97;64.49;99221.88;5110216;28;20027;-79
2022/04/02 03:52:35;;;;;;;44.58;9.23;;;;;;;13.97;64.26;99229.19;5110580;28;20042;-79
2022/04/02 03:55:01;;;;;;;60.40;9.60;;;;;;;14.05;64.20;99243.25;5109937;28;20426;-79
2022/04/02 03:57:26;;;;;;;56.90;8.55;;;;;;;14.02;64.23;99235.56;5110476;28;20110;-82
2022/04/02 03:59:51;;;;;;;36.97;7.00;;;;;;;13.99;64.28;99235.19;5109924;28;20032;-79
2022/04/02 04:02:17;;;;;;;43.65;8.40;;;;;;;14.07;64.11;99237.63;5110543;28;20066;-80
2022/04/02 04:04:43;;;;;;;48.90;8.57;;;;;;;14.08;64.11;99242.00;5109826;28;20548;-79
2022/04/02 04:07:08;;;;;;;41.80;7.85;;;;;;;13.90;64.28;99246.25;5110155;28;20073;-79
2022/04/02 04:09:34;;;;;;;46.35;7.55;;;;;;;13.95;64.13;99253.69;5110272;28;20027;-78
2022/04/02 04:11:59;;;;;;;53.92;7.43;;;;;;;14.06;64.08;99263.00;5110574;28;20072;-80
2022/04/02 04:14:25;;;;;;;52.33;8.98;;;;;;;14.10;63.80;99265.06;5110065;28;20031;-79
2022/04/02 04:16:51;;;;;;;42.97;7.95;;;;;;;14.04;63.93;99251.56;5113515;28;20092;-80
2022/04/02 04:19:17;;;;;;;57.30;9.13;;;;;;;14.23;63.42;99263.28;5113907;28;20150;-80
2022/04/02 04:21:43;;;;;;;53.28;8.48;;;;;;;14.19;63.56;99262.06;5114260;28;20039;-78
2022/04/02 04:24:08;;;;;;;49.72;8.40;;;;;;;14.13;63.28;99247.56;5114192;28;20029;-79
2022/04/02 04:26:34;;;;;;;48.22;9.15;;;;;;;14.29;63.24;99267.84;5113056;28;20115;-81
2022/04/02 04:29:00;;;;;;;51.35;9.02;;;;;;;14.21;63.35;99274.34;5112449;28;20035;-80
2022/04/02 04:31:25;;;;;;;46.95;8.40;;;;;;;14.26;63.32;99281.81;5112892;28;20034;-79
2022/04/02 04:33:51;;;;;;;42.80;7.95;;;;;;;14.25;63.13;99277.44;5113768;28;20039;-80
2022/04/02 04:36:18;;;;;;;55.45;8.85;;;;;;;14.16;63.30;99276.84;5114230;28;20036;-79
2022/04/02 04:38:43;;;;;;;54.58;7.72;;;;;;;14.13;63.36;99272.72;5113941;28;20019;-79
2022/04/02 04:41:09;;;;;;;44.25;7.47;;;;;;;14.19;63.24;99275.59;5135006;28;20024;-82
2022/04/02 04:43:35;;;;;;;45.33;8.05;;;;;;;14.26;62.92;99279.09;5121877;28;20419;-80
2022/04/02 04:46:02;;;;;;;51.22;7.93;;;;;;;14.49;62.20;99289.31;5117341;28;20423;-79
2022/04/02 04:48:27;;;;;;;43.10;7.70;;;;;;;14.69;61.56;99287.31;5096433;28;20067;-80
2022/04/02 04:50:53;;;;;;;43.38;8.65;;;;;;;14.78;60.84;99293.28;5114604;28;20418;-79
2022/04/02 04:53:18;;;;;;;35.55;6.70;;;;;;;14.71;60.98;99276.28;5113953;28;20046;-79
2022/04/02 04:55:44;;;;;;;46.05;8.55;;;;;;;14.79;60.88;99281.38;5112546;28;20055;-81
2022/04/02 04:58:09;;;;;;;53.85;8.23;;;;;;;15.06;60.21;99306.34;5111424;28;20581;-79
2022/04/02 05:00:35;;;;;;;44.65;7.60;;;;;;;15.17;59.52;99304.75;5113373;28;20035;-79
2022/04/02 05:03:00;;;;;;;46.08;7.78;;;;;;;15.19;59.34;99311.63;5114157;28;20114;-79
2022/04/02 05:05:26;;;;;;;50.65;7.43;;;;;;;15.36;58.71;99317.28;5122863;28;20035;-84
2022/04/02 05:07:51;;;;;;;49.50;9.10;;;;;;;15.49;58.35;99320.88;5112378;28;20040;-79
2022/04/02 05:10:17;;;;;;;44.72;8.13;;;;;;;15.63;57.90;99322.38;5113087;28;20043;-79
2022/04/02 05:12:42;;;;;;;54.05;7.95;;;;;;;15.88;57.09;99321.50;5113564;28;20043;-81
2022/04/02 05:15:08;;;;;;;46.97;7.55;;;;;;;16.06;56.32;99329.59;5111460;28;20454;-80
2022/04/02 05:17:34;;;;;;;;;;;;;;;16.01;56.29;99329.44;5112366;28;20046;-79
2022/04/02 05:20:03;;;;;;;41.92;7.13;;;;;;;16.22;55.27;99334.38;5112762;27;19995;-78
2022/04/02 05:22:36;;;;;;;38.63;7.53;;;;;;;16.24;54.97;99317.88;5095841;28;20034;-80
2022/04/02 05:25:02;;;;;;;43.70;7.45;;;;;;;16.40;54.21;99332.66;5110158;28;20527;-79
2022/04/02 05:27:28;;;;;;;41.28;7.95;;;;;;;16.31;54.58;99332.16;5111915;28;20035;-80
2022/04/02 05:29:54;;;;;;;41.53;7.72;;;;;;;16.97;53.19;99327.59;5111237;28;20036;-79
2022/04/02 05:32:19;;;;;;;;;;;;;;;18.05;49.56;99335.38;5111013;28;20027;-79
2022/04/02 05:34:45;;;;;;;35.15;6.65;;;;;;;18.61;47.89;99333.69;5111641;28;20014;-79
2022/04/02 05:37:10;;;;;;;;;;;;;;;19.57;45.38;99333.56;5111703;28;20020;-79
2022/04/02 05:39:36;;;;;;;30.67;7.90;;;;;;;20.70;42.84;99331.28;5111586;28;19908;-79
2022/04/02 05:42:02;;;;;;;33.78;6.53;;;;;;;21.59;40.06;99336.06;5111035;28;20499;-78
2022/04/02 05:44:28;;;;;;;42.30;9.25;;;;;;;21.81;39.39;99337.81;5112054;28;20035;-79
2022/04/02 05:46:53;;;;;;;40.63;9.05;;;;;;;22.39;37.95;99343.22;5113178;28;20035;-80
2022/04/02 05:49:19;;;;;;;35.17;7.90;;;;;;;23.26;36.60;99348.75;5110144;27;20433;-79
2022/04/02 05:51:44;;;;;;;36.92;7.80;;;;;;;23.60;35.48;99347.03;5109925;28;20178;-79
2022/04/02 05:54:10;;;;;;;35.30;7.13;;;;;;;23.58;35.28;99348.41;5110308;28;20019;-79
2022/04/02 05:56:36;;;;;;;33.97;7.72;;;;;;;24.17;33.88;99350.38;5107560;28;20043;-79
2022/04/02 05:59:07;;;;;;;32.38;7.20;;;;;;;24.38;33.62;99348.34;5108972;28;20038;-80
2022/04/02 06:01:32;;;;;;;34.10;7.82;;;;;;;25.18;31.92;99335.44;5073717;28;20056;-81
2022/04/02 06:03:58;;;;;;;34.45;7.22;;;;;;;25.42;31.25;99351.94;5077945;28;20039;-81
2022/04/02 06:06:24;;;;;;;30.08;6.90;;;;;;;25.20;31.57;99350.53;5111844;28;20102;-81
2022/04/02 06:08:49;;;;;;;36.67;7.05;;;;;;;25.28;31.19;99346.31;5094959;28;20027;-80
2022/04/02 06:11:15;;;;;;;33.20;7.20;;;;;;;26.04;30.26;99346.59;5113755;28;20027;-82
2022/04/02 06:13:41;;;;;;;34.10;7.03;;;;;;;26.37;29.73;99354.97;5089312;28;20046;-81
2022/04/02 06:16:06;;;;;;;35.70;6.53;;;;;;;26.81;29.38;99362.03;5112752;28;20043;-81
2022/04/02 06:18:32;;;;;;;32.78;6.50;;;;;;;27.10;28.24;99343.34;5113554;28;20092;-80
2022/04/02 06:21:03;;;;;;;30.95;7.10;;;;;;;27.50;27.96;99360.31;5114501;28;20039;-77
2022/04/02 06:23:29;;;;;;;39.38;6.80;;;;;;;27.74;27.67;99353.78;5116186;28;20047;-81
2022/04/02 06:25:54;;;;;;;31.75;6.32;;;;;;;27.54;27.67;99368.81;5115421;27;20027;-83
2022/04/02 06:28:22;;;;;;;24.48;6.90;;;;;;;27.73;26.72;99369.53;5113146;28;20544;-80
2022/04/02 06:30:48;;;;;;;31.23;6.75;;;;;;;27.73;27.03;99369.53;5114134;28;20039;-80
2022/04/02 06:33:15;;;;;;;29.77;6.40;;;;;;;27.38;27.62;99362.75;5117177;28;20023;-79
2022/04/02 06:35:41;;;;;;;33.05;6.65;;;;;;;28.24;26.12;99353.03;5119756;28;20095;-84
2022/04/02 06:38:06;;;;;;;26.85;6.60;;;;;;;29.00;25.20;99355.97;5116930;28;20035;-82
2022/04/02 06:40:32;;;;;;;28.77;6.60;;;;;;;29.19;24.87;99364.09;5112022;28;20392;-80
2022/04/02 06:42:58;;;;;;;30.30;5.82;;;;;;;29.41;24.18;99364.09;5111170;28;20122;-81
2022/04/02 06:45:27;;;;;;;27.85;7.18;;;;;;;29.73;23.81;99361.31;5109735;28;20433;-81
2022/04/02 06:47:52;;;;;;;33.70;5.97;;;;;;;30.90;22.62;99366.09;5109092;28;20076;-80
2022/04/02 06:50:18;;;;;;;26.63;5.78;;;;;;;30.42;23.04;99357.94;5092249;28;20031;-80
2022/04/02 06:52:44;;;;;;;37.08;6.38;;;;;;;30.86;22.24;99354.03;5110252;28;20052;-80
2022/04/02 06:55:11;;;;;;;28.17;6.00;;;;;;;30.98;21.61;99356.13;5092291;28;20491;-80
2022/04/02 06:57:43;;;;;;;29.35;6.18;;;;;;;29.98;22.51;99359.75;5110676;28;20043;-79
2022/04/02 07:00:11;;;;;;;24.35;5.25;;;;;;;30.57;22.06;99364.94;5108626;28;20487;-81
2022/04/02 07:02:37;;;;;;;20.10;5.18;;;;;;;31.34;21.20;99347.38;5109875;28;20111;-80
2022/04/02 07:05:03;;;;;;;24.98;5.80;;;;;;;31.65;20.60;99345.50;5111300;28;20072;-80
2022/04/02 07:07:34;;;;;;;23.20;7.10;;;;;;;32.20;19.89;99341.00;5110590;28;20023;-82
2022/04/02 07:10:00;;;;;;;24.23;5.90;;;;;;;32.49;19.49;99352.03;5109634;28;20032;-81
2022/04/02 07:12:25;;;;;;;23.77;5.68;;;;;;;32.68;19.49;99353.56;5093703;28;20035;-80
2022/04/02 07:14:51;;;;;;;26.13;6.30;;;;;;;31.71;20.27;99358.88;5109334;28;20110;-80
2022/04/02 07:17:17;;;;;;;22.55;5.13;;;;;;;31.75;20.18;99354.28;5109074;28;20027;-82
2022/04/02 07:19:43;;;;;;;20.80;5.13;;;;;;;31.89;20.02;99356.00;5108572;28;20039;-80
2022/04/02 07:22:09;;;;;;;24.45;5.00;;;;;;;31.34;20.21;99350.16;5092098;28;20043;-82
2022/04/02 07:24:37;;;;;;;23.67;5.00;;;;;;;31.84;19.85;99353.41;5108753;28;20023;-80
2022/04/02 07:27:02;;;;;;;24.60;5.10;;;;;;;30.28;21.00;99355.31;5108656;28;20114;-80
2022/04/02 07:29:28;;;;;;;21.02;4.40;;;;;;;30.23;19.93;99347.13;5110003;28;20034;-81
2022/04/02 07:31:54;;;;;;;19.20;4.70;;;;;;;30.96;19.66;99363.16;5088496;28;20086;-80
2022/04/02 07:34:19;;;;;;;21.65;4.30;;;;;;;30.59;18.70;99359.88;5102593;28;20535;-80
2022/04/02 07:37:06;;;;;;;18.67;3.95;;;;;;;30.28;19.11;99350.56;5109194;28;20440;-81
2022/04/02 07:40:02;;;;;;;16.00;3.50;;;;;;;30.56;18.67;99352.22;5104415;28;20038;-81
2022/04/02 07:42:32;;;;;;;17.80;4.32;;;;;;;31.75;17.78;99368.19;5081759;28;20130;-82
2022/04/02 07:45:06;;;;;;;14.95;3.80;;;;;;;31.86;17.21;99362.25;5100888;28;20031;-82
2022/04/02 07:47:34;;;;;;;15.55;4.07;;;;;;;32.07;16.77;99343.66;5110623;28;20048;-81
2022/04/02 07:50:03;;;;;;;17.85;3.80;;;;;;;32.17;17.20;99365.53;5092256;28;20114;-80
2022/04/02 07:52:29;;;;;;;16.67;3.95;;;;;;;31.74;17.63;99374.88;5111102;28;20095;-81
2022/04/02 07:54:59;;;;;;;14.65;4.22;;;;;;;31.43;17.95;99372.38;5110186;28;20031;-80
2022/04/02 07:57:34;;;;;;;12.40;3.90;;;;;;;30.82;17.96;99366.88;5112723;28;20066;-80
2022/04/02 08:00:04;;;;;;;10.02;3.50;;;;;;;31.49;17.05;99371.06;5092817;28;20035;-81
2022/04/02 08:02:36;;;;;;;9.40;3.20;;;;;;;30.31;18.22;99364.91;5114080;28;20024;-81
2022/04/02 08:05:06;;;;;;;14.13;3.40;;;;;;;30.59;17.87;99365.44;5114500;28;20471;-79
2022/04/02 08:07:32;;;;;;;11.23;3.35;;;;;;;30.46;17.94;99361.66;5114856;28;20032;-79
2022/04/02 08:10:00;;;;;;;18.58;3.65;;;;;;;30.48;17.90;99359.38;5116774;28;20062;-81
2022/04/02 08:12:26;;;;;;;8.25;2.70;;;;;;;30.84;17.51;99367.41;5113731;28;20083;-82
2022/04/02 08:14:52;;;;;;;16.35;2.78;;;;;;;30.82;17.10;99364.13;5112623;28;20028;-80
2022/04/02 08:17:21;;;;;;;14.68;2.50;;;;;;;31.41;15.96;99340.53;5113694;28;20027;-80
2022/04/02 08:19:48;;;;;;;10.80;2.40;;;;;;;30.63;16.47;99363.66;5113670;28;20475;-80
2022/04/02 08:22:16;;;;;;;11.70;1.98;;;;;;;30.94;16.08;99365.44;5097942;28;20023;-80
2022/04/02 08:24:42;;;;;;;8.32;2.03;;;;;;;30.72;16.03;99364.47;5134384;28;20031;-80
2022/04/02 08:27:24;;;;;;;6.32;1.80;;;;;;;31.08;15.58;99391.06;5123558;28;20050;-80
2022/04/02 08:30:06;;;;;;;7.40;1.80;;;;;;;30.32;16.41;99374.84;5112623;28;20039;-79
2022/04/02 08:32:47;;;;;;;6.85;1.75;;;;;;;30.66;16.53;99391.53;5115211;28;20024;-81
2022/04/02 08:35:13;;;;;;;7.93;1.80;;;;;;;30.42;16.41;99367.06;5114085;28;20062;-81
2022/04/02 08:38:19;;;;;;;9.15;1.80;;;;;;;30.85;16.28;99382.91;5114567;28;20024;-80
2022/04/02 08:41:22;;;;;;;4.82;1.77;;;;;;;30.31;16.47;99387.91;5079986;28;20099;-82
2022/04/02 08:44:09;;;;;;;4.75;2.10;;;;;;;31.68;15.53;99394.84;5114119;28;20071;-79
2022/04/02 08:46:35;;;;;;;6.35;1.70;;;;;;;31.01;15.78;99393.50;5109802;28;20019;-83
2022/04/02 08:49:28;;;;;;;6.20;1.55;;;;;;;29.23;17.65;99396.38;5113292;28;20127;-82
2022/04/02 08:52:06;;;;;;;5.47;1.90;;;;;;;29.46;17.61;99401.88;5108488;28;20020;-80
2022/04/02 08:54:38;;;;;;;9.10;2.20;;;;;;;28.77;18.24;99402.19;5111125;28;20055;-83
2022/04/02 08:57:22;;;;;;;7.82;2.25;;;;;;;30.59;17.02;99399.53;5135025;28;20043;-80
2022/04/02 09:00:07;;;;;;;8.98;2.58;;;;;;;30.58;17.25;99386.81;5112148;28;20152;-80
2022/04/02 09:03:16;;;;;;;10.98;1.80;;;;;;;30.28;16.90;99394.91;5076305;28;20131;-82
2022/04/02 09:05:45;;;;;;;6.00;1.92;;;;;;;29.19;18.15;99395.34;5033364;28;20037;-80
2022/04/02 09:08:35;;;;;;;6.28;2.22;;;;;;;29.97;17.40;99397.75;5111183;27;20043;-81
2022/04/02 09:11:07;;;;;;;9.00;2.42;;;;;;;29.35;18.41;99397.75;5111897;28;20024;-82
2022/04/02 09:13:42;;;;;;;11.90;2.63;;;;;;;27.40;20.91;99404.66;5110579;28;20063;-84
2022/04/02 09:16:08;;;;;;;14.40;2.67;;;;;;;27.10;21.07;99398.50;5111099;28;20084;-82
2022/04/02 09:18:56;;;;;;;7.38;2.25;;;;;;;26.51;22.00;99387.00;5112147;28;20151;-83
2022/04/02 09:21:33;;;;;;;8.23;2.60;;;;;;;27.34;21.53;99403.09;5112700;28;20027;-81
2022/04/02 09:24:07;;;;;;;9.23;2.40;;;;;;;28.10;20.59;99405.56;5111455;28;20031;-83
2022/04/02 09:27:06;;;;;;;17.33;2.75;;;;;;;28.40;20.25;99399.41;5111956;28;20024;-81
2022/04/02 09:29:35;;;;;;;9.95;3.28;;;;;;;27.82;21.62;99408.31;5111381;28;20054;-79
2022/04/02 09:32:23;;;;;;;13.50;3.15;;;;;;;30.04;19.06;99392.56;5109063;28;20030;-80
2022/04/02 09:35:03;;;;;;;10.88;2.90;;;;;;;31.23;17.74;99400.81;5101965;28;20403;-82
2022/04/02 09:37:37;;;;;;;13.15;2.97;;;;;;;31.05;18.14;99389.75;5091267;28;20563;-82
2022/04/02 09:40:05;;;;;;;15.90;3.20;;;;;;;32.30;17.07;99388.66;5111617;28;20096;-80
2022/04/02 09:42:30;;;;;;;8.35;2.85;;;;;;;32.85;16.62;99403.53;5112365;28;20044;-82
2022/04/02 09:45:03;;;;;;;16.73;3.58;;;;;;;33.51;15.53;99399.13;5112103;28;20617;-81
2022/04/02 09:47:47;;;;;;;8.73;2.60;;;;;;;33.59;14.80;99389.88;5111740;28;20491;-82
2022/04/02 09:50:14;;;;;;;11.88;3.03;;;;;;;33.98;14.67;99405.13;5112296;28;20348;-81
2022/04/02 09:52:58;;;;;;;11.35;2.83;;;;;;;34.34;13.86;99391.53;5112830;28;20028;-81
2022/04/02 09:55:24;;;;;;;8.82;2.22;;;;;;;33.11;14.74;99388.59;5109777;28;20548;-81
2022/04/02 09:57:58;;;;;;;8.18;2.20;;;;;;;31.17;16.50;99391.06;5111943;28;20073;-83
2022/04/02 10:00:25;;;;;;;14.15;2.35;;;;;;;31.17;16.41;99377.97;5111784;28;20019;-81
2022/04/02 10:03:01;;;;;;;9.93;2.50;;;;;;;30.48;17.23;99382.41;5110421;28;20027;-81
2022/04/02 10:05:40;;;;;;;9.45;2.78;;;;;;;27.96;19.87;99384.28;5093856;28;20028;-84
2022/04/02 10:08:06;;;;;;;11.43;2.70;;;;;;;26.83;21.39;99392.88;5111801;28;20436;-81
2022/04/02 10:10:32;;;;;;;10.90;2.70;;;;;;;26.17;22.07;99380.84;5108215;28;20036;-81
2022/04/02 10:12:58;;;;;;;8.50;2.72;;;;;;;27.56;20.72;99377.59;5110449;28;20033;-82
2022/04/02 10:15:24;;;;;;;10.30;2.70;;;;;;;29.78;18.40;99386.09;5110792;28;20055;-83
2022/04/02 10:17:52;;;;;;;9.57;2.58;;;;;;;30.18;17.49;99369.41;5111765;28;20058;-82
2022/04/02 10:20:23;;;;;;;12.95;2.25;;;;;;;29.41;18.14;99388.19;5098446;28;20032;-81
2022/04/02 10:23:12;;;;;;;10.40;2.78;;;;;;;28.08;19.56;99363.63;5111854;28;20072;-82
2022/04/02 10:25:53;;;;;;;8.68;2.58;;;;;;;27.90;20.01;99376.41;5110954;28;20063;-81
2022/04/02 10:28:19;;;;;;;12.73;2.58;;;;;;;26.95;20.94;99379.47;5094873;28;20491;-81
2022/04/02 10:30:44;;;;;;;9.60;2.63;;;;;;;29.29;18.33;99374.09;5109229;28;20460;-82
2022/04/02 10:33:29;;;;;;;11.57;3.40;;;;;;;28.80;18.69;99371.97;5092553;28;20178;-81
2022/04/02 10:35:55;;;;;;;12.23;2.90;;;;;;;27.48;19.87;99390.16;5106774;28;20106;-80
2022/04/02 10:38:24;;;;;;;9.52;2.10;;;;;;;28.18;19.20;99375.25;5109583;28;20038;-81
2022/04/02 10:40:51;;;;;;;8.13;2.65;;;;;;;29.94;17.53;99372.63;5107309;28;20031;-81
2022/04/02 10:43:30;;;;;;;8.18;1.80;;;;;;;30.92;16.20;99377.69;5109319;28;20706;-81
2022/04/02 10:45:56;;;;;;;9.05;2.47;;;;;;;31.98;15.01;99381.00;5107143;28;20034;-81
2022/04/02 10:48:32;;;;;;;9.27;2.00;;;;;;;30.87;15.63;99372.31;5110066;28;20028;-81
2022/04/02 10:50:58;;;;;;;13.98;2.35;;;;;;;30.38;15.92;99365.25;5103349;28;20472;-82
2022/04/02 10:53:23;;;;;;;8.45;2.17;;;;;;;31.18;15.13;99354.63;5094040;28;20030;-80
2022/04/02 10:55:58;;;;;;;9.00;2.28;;;;;;;31.23;15.51;99368.31;5092853;28;20031;-82
2022/04/02 10:58:23;;;;;;;7.50;2.20;;;;;;;31.99;14.74;99344.56;5110388;28;20027;-82
2022/04/02 11:00:49;;;;;;;7.60;2.53;;;;;;;32.76;14.39;99356.28;5110087;28;20031;-82
2022/04/02 11:03:29;;;;;;;11.88;2.08;;;;;;;32.77;13.84;99359.88;5092912;28;20035;-82
2022/04/02 11:05:55;;;;;;;11.25;2.90;;;;;;;30.87;15.25;99355.66;5107204;28;20031;-81
2022/04/02 11:08:22;;;;;;;9.27;1.85;;;;;;;29.00;16.85;99351.25;5109767;28;20372;-81
2022/04/02 11:10:48;;;;;;;8.88;2.20;;;;;;;28.25;17.79;99352.75;5109299;28;20027;-80
2022/04/02 11:13:13;;;;;;;4.72;1.80;;;;;;;30.68;15.53;99346.84;5109126;28;20085;-82
2022/04/02 11:15:40;;;;;;;9.85;2.10;;;;;;;31.06;15.56;99346.97;5109663;28;20038;-82
2022/04/02 11:18:15;;;;;;;10.13;2.03;;;;;;;31.46;15.46;99343.94;5092034;28;20517;-81
2022/04/02 11:20:40;;;;;;;10.98;2.00;;;;;;;32.79;14.40;99333.31;5085457;28;20049;-81
2022/04/02 11:23:42;;;;;;;10.65;2.20;;;;;;;33.18;13.91;99338.72;5090574;28;20382;-82
2022/04/02 11:26:08;;;;;;;7.50;2.40;;;;;;;34.93;12.91;99337.06;5047470;28;20532;-81
2022/04/02 11:28:44;;;;;;;5.60;2.08;;;;;;;33.71;13.53;99364.78;5091473;28;20047;-80
2022/04/02 11:31:11;;;;;;;6.57;2.17;;;;;;;33.71;11.80;99356.44;5110558;28;20035;-81
2022/04/02 11:33:51;;;;;;;8.73;1.80;;;;;;;31.10;13.19;99366.56;5108396;28;20042;-81
2022/04/02 11:36:17;;;;;;;5.43;1.80;;;;;;;28.88;15.16;99347.44;5109115;28;20145;-80
2022/04/02 11:39:03;;;;;;;5.65;1.67;;;;;;;30.09;13.89;99342.50;5090993;28;20032;-82
2022/04/02 11:41:33;;;;;;;6.82;1.75;;;;;;;31.02;13.65;99345.19;5101985;28;20165;-82